Time;durP1;ratioP1;P1;durP2;ratioP2;P2;SDS_P1;SDS_P2;PMS_P1;PMS_P2;Temp;Humidity;BMP_temperature;BMP_pressure;BME280_temperature;BME280_humidity;BME280_pressure;Samples;Min_cycle;Max_cycle;Signal;HPM_P1;HPM_P2
2022/03/28 00:01:38;;;;;;;11.70;9.97;;;12.40;57.40;;;;;;5078450;28;20473;-66
2022/03/28 00:04:05;;;;;;;13.57;10.40;;;12.40;57.60;;;;;;5079356;28;20963;-66
2022/03/28 00:06:33;;;;;;;11.50;9.93;;;12.40;57.80;;;;;;5082639;28;20502;-66
2022/03/28 00:09:00;;;;;;;11.40;9.73;;;12.40;58.00;;;;;;5083022;28;20471;-66
2022/03/28 00:11:27;;;;;;;14.50;10.17;;;12.30;58.00;;;;;;5083940;28;20469;-66
2022/03/28 00:13:54;;;;;;;10.50;8.80;;;12.30;58.10;;;;;;5084342;28;20483;-66
2022/03/28 00:16:21;;;;;;;10.00;9.00;;;12.30;58.30;;;;;;5082977;28;20468;-66
2022/03/28 00:18:48;;;;;;;12.27;9.37;;;12.30;58.40;;;;;;5082093;28;20958;-66
2022/03/28 00:21:14;;;;;;;10.10;9.10;;;12.30;58.50;;;;;;5082259;28;20460;-66
2022/03/28 00:23:43;;;;;;;10.40;9.30;;;12.30;58.60;;;;;;5082014;28;20448;-66
2022/03/28 00:26:09;;;;;;;12.80;8.97;;;12.30;58.80;;;;;;5083314;28;20452;-67
2022/03/28 00:28:36;;;;;;;12.20;10.13;;;12.20;58.80;;;;;;5083140;28;20448;-67
2022/03/28 00:31:03;;;;;;;10.60;9.00;;;12.20;59.00;;;;;;5082392;28;20468;-67
2022/03/28 00:33:30;;;;;;;11.77;9.90;;;12.10;59.10;;;;;;5081946;28;20483;-67
2022/03/28 00:35:56;;;;;;;10.53;9.43;;;12.10;59.20;;;;;;5083427;28;20457;-67
2022/03/28 00:38:23;;;;;;;11.27;9.53;;;12.10;59.50;;;;;;5085073;28;20443;-66
2022/03/28 00:40:51;;;;;;;9.83;8.57;;;12.00;59.70;;;;;;5088066;28;20479;-67
2022/03/28 00:43:18;;;;;;;10.77;9.67;;;12.00;59.80;;;;;;5082091;28;20445;-67
2022/03/28 00:45:45;;;;;;;16.73;9.97;;;12.00;60.00;;;;;;5082941;28;20452;-66
2022/03/28 00:48:13;;;;;;;11.07;9.90;;;12.00;60.10;;;;;;5081808;28;20440;-67
2022/03/28 00:50:41;;;;;;;11.53;9.90;;;11.90;60.10;;;;;;5082634;28;20457;-67
2022/03/28 00:53:12;;;;;;;13.10;10.27;;;11.90;60.20;;;;;;5083346;28;20449;-67
2022/03/28 00:55:39;;;;;;;10.97;9.80;;;11.90;60.50;;;;;;5081738;28;20937;-67
2022/03/28 00:58:07;;;;;;;10.03;9.03;;;11.80;60.70;;;;;;5082815;28;20459;-67
2022/03/28 01:00:34;;;;;;;12.63;10.87;;;11.70;60.80;;;;;;5084074;28;20441;-67
2022/03/28 01:03:03;;;;;;;12.00;9.80;;;11.70;60.90;;;;;;5081694;28;20449;-67
2022/03/28 01:05:31;;;;;;;15.13;10.27;;;11.60;61.10;;;;;;5093085;28;20525;-66
2022/03/28 01:07:59;;;;;;;12.67;9.87;;;11.60;61.50;;;;;;5100281;28;20440;-66
2022/03/28 01:10:27;;;;;;;11.10;9.30;;;11.60;61.80;;;;;;5093953;28;20456;-66
2022/03/28 01:12:54;;;;;;;12.53;9.53;;;11.50;61.90;;;;;;5085276;28;20444;-66
2022/03/28 01:15:22;;;;;;;12.00;9.97;;;11.50;61.90;;;;;;5084144;28;20473;-67
2022/03/28 01:18:09;;;;;;;12.33;9.90;;;11.50;61.80;;;;;;5082395;28;20445;-65
2022/03/28 01:20:37;;;;;;;13.60;11.17;;;11.50;62.00;;;;;;5081694;28;20494;-65
2022/03/28 01:23:06;;;;;;;9.90;8.87;;;11.40;62.40;;;;;;5080900;28;20449;-66
2022/03/28 01:25:33;;;;;;;11.10;10.00;;;11.40;62.90;;;;;;5080640;28;20437;-66
2022/03/28 01:28:01;;;;;;;15.77;10.23;;;11.40;63.10;;;;;;5081432;28;20461;-66
2022/03/28 01:30:30;;;;;;;12.50;10.43;;;11.40;63.00;;;;;;5081337;28;20444;-66
2022/03/28 01:32:58;;;;;;;12.43;10.97;;;11.40;63.40;;;;;;5081280;28;20448;-66
2022/03/28 01:35:27;;;;;;;13.77;10.30;;;11.40;63.80;;;;;;5080624;28;20492;-65
2022/03/28 01:37:53;;;;;;;12.50;11.20;;;11.40;64.50;;;;;;5081207;28;20988;-65
2022/03/28 01:40:21;;;;;;;12.87;10.43;;;11.30;64.30;;;;;;5081297;28;20448;-65
2022/03/28 01:42:49;;;;;;;11.33;9.97;;;11.30;64.30;;;;;;5080972;28;20452;-66
2022/03/28 01:45:17;;;;;;;10.80;9.70;;;11.30;64.30;;;;;;5081906;28;20448;-66
2022/03/28 01:47:44;;;;;;;10.20;8.33;;;11.30;64.30;;;;;;5080702;28;20803;-66
2022/03/28 01:50:11;;;;;;;10.30;8.77;;;11.30;64.40;;;;;;5080769;28;20448;-66
2022/03/28 01:52:37;;;;;;;10.80;9.27;;;11.20;64.50;;;;;;5079489;28;20463;-65
2022/03/28 01:55:05;;;;;;;12.50;8.73;;;11.20;64.40;;;;;;5079764;28;20484;-65
2022/03/28 01:57:33;;;;;;;11.37;9.40;;;11.20;64.90;;;;;;5079564;28;20441;-66
2022/03/28 02:00:00;;;;;;;10.50;8.63;;;11.10;65.20;;;;;;5079833;28;20810;-66
2022/03/28 02:02:28;;;;;;;12.37;9.70;;;11.10;64.90;;;;;;5080901;28;20971;-66
2022/03/28 02:04:55;;;;;;;9.20;8.07;;;11.00;65.00;;;;;;5081345;28;20444;-67
2022/03/28 02:07:21;;;;;;;10.50;9.00;;;11.00;65.10;;;;;;5081770;28;20483;-67
2022/03/28 02:09:48;;;;;;;10.57;9.53;;;10.90;65.40;;;;;;5080576;28;20448;-67
2022/03/28 02:12:15;;;;;;;10.40;9.30;;;10.90;65.60;;;;;;5080906;28;20960;-67
2022/03/28 02:14:43;;;;;;;9.43;8.43;;;10.90;66.00;;;;;;5079202;28;20472;-65
2022/03/28 02:17:10;;;;;;;11.53;9.80;;;10.80;66.00;;;;;;5079052;28;20448;-66
2022/03/28 02:19:37;;;;;;;14.20;9.27;;;10.80;66.40;;;;;;5078255;28;20994;-66
2022/03/28 02:22:04;;;;;;;11.00;9.53;;;10.80;66.90;;;;;;5077980;28;20471;-67
2022/03/28 02:24:31;;;;;;;11.90;9.73;;;10.80;66.80;;;;;;5077954;28;20452;-67
2022/03/28 02:26:58;;;;;;;12.63;9.50;;;10.80;67.20;;;;;;5078694;28;20488;-67
2022/03/28 02:29:25;;;;;;;11.27;8.83;;;10.80;67.80;;;;;;5076848;28;20448;-67
2022/03/28 02:31:53;;;;;;;9.73;8.73;;;10.80;67.90;;;;;;5077978;28;20464;-67
2022/03/28 02:34:19;;;;;;;10.70;9.33;;;10.70;67.80;;;;;;5078123;28;20488;-67
2022/03/28 02:36:46;;;;;;;13.83;10.40;;;10.70;68.00;;;;;;5078524;28;20486;-66
2022/03/28 02:39:13;;;;;;;11.13;9.70;;;10.70;68.20;;;;;;5078862;28;20943;-66
2022/03/28 02:41:40;;;;;;;11.67;10.20;;;10.70;68.00;;;;;;5079200;28;20472;-66
2022/03/28 02:44:07;;;;;;;11.37;9.20;;;10.70;68.30;;;;;;5078274;28;20448;-66
2022/03/28 02:46:34;;;;;;;15.60;9.60;;;10.70;68.80;;;;;;5077880;28;20452;-65
2022/03/28 02:49:03;;;;;;;10.97;9.87;;;10.70;68.60;;;;;;5078274;28;20444;-66
2022/03/28 02:51:30;;;;;;;13.77;10.67;;;10.70;68.60;;;;;;5079924;28;20477;-66
2022/03/28 02:53:56;;;;;;;10.47;9.37;;;10.60;68.80;;;;;;5077010;28;20475;-66
2022/03/28 02:56:23;;;;;;;11.23;9.37;;;10.60;69.30;;;;;;5077983;28;20451;-65
2022/03/28 02:58:50;;;;;;;13.60;9.43;;;10.60;69.20;;;;;;5078921;28;20444;-66
2022/03/28 03:01:17;;;;;;;13.50;9.90;;;10.60;69.20;;;;;;5077893;28;20475;-65
2022/03/28 03:03:43;;;;;;;11.57;10.20;;;10.50;69.20;;;;;;5085335;28;20452;-65
2022/03/28 03:06:11;;;;;;;11.33;10.13;;;10.50;69.40;;;;;;5082902;28;20475;-65
2022/03/28 03:08:38;;;;;;;10.30;9.23;;;10.50;69.50;;;;;;5083716;28;20445;-65
2022/03/28 03:11:05;;;;;;;11.70;9.80;;;10.40;69.40;;;;;;5080595;28;20495;-65
2022/03/28 03:13:32;;;;;;;12.37;9.63;;;10.30;69.10;;;;;;5081225;28;20829;-66
2022/03/28 03:15:59;;;;;;;12.43;10.03;;;10.30;69.10;;;;;;5081392;28;20480;-66
2022/03/28 03:18:25;;;;;;;10.33;8.57;;;10.20;69.30;;;;;;5081506;28;20452;-66
2022/03/28 03:20:52;;;;;;;12.87;8.93;;;10.20;69.70;;;;;;5074239;28;20551;-64
2022/03/28 03:23:20;;;;;;;13.47;9.43;;;10.10;69.80;;;;;;5073627;28;20451;-64
2022/03/28 03:25:48;;;;;;;13.43;10.13;;;10.10;70.20;;;;;;5073349;28;20440;-64
2022/03/28 03:28:15;;;;;;;12.03;9.90;;;10.10;70.50;;;;;;5073595;28;20467;-64
2022/03/28 03:30:43;;;;;;;12.57;10.50;;;10.00;70.60;;;;;;5073505;28;20582;-64
2022/03/28 03:33:09;;;;;;;10.33;9.23;;;10.00;71.00;;;;;;5073144;28;20449;-64
2022/03/28 03:35:36;;;;;;;12.03;10.40;;;10.00;71.30;;;;;;5072994;28;20910;-64
2022/03/28 03:38:04;;;;;;;11.20;10.07;;;10.00;71.30;;;;;;5073323;28;20471;-64
2022/03/28 03:40:32;;;;;;;17.43;13.20;;;10.00;71.20;;;;;;5072914;28;20505;-63
2022/03/28 03:42:59;;;;;;;13.67;11.30;;;10.00;71.50;;;;;;5073383;28;20451;-64
2022/03/28 03:45:25;;;;;;;13.40;10.57;;;9.90;72.90;;;;;;5073342;28;20449;-64
2022/03/28 03:47:52;;;;;;;13.17;10.17;;;9.90;73.30;;;;;;5073623;28;20449;-64
2022/03/28 03:50:19;;;;;;;11.80;10.10;;;9.90;73.60;;;;;;5073189;28;20451;-64
2022/03/28 03:52:47;;;;;;;12.60;10.10;;;9.90;73.50;;;;;;5073876;28;20444;-64
2022/03/28 03:55:14;;;;;;;12.40;10.27;;;9.90;73.50;;;;;;5073825;28;20488;-64
2022/03/28 03:57:42;;;;;;;16.13;11.10;;;9.80;73.70;;;;;;5074020;28;20447;-64
2022/03/28 04:00:10;;;;;;;13.67;10.70;;;9.80;73.80;;;;;;5073291;28;20449;-64
2022/03/28 04:02:37;;;;;;;12.57;10.57;;;9.80;74.00;;;;;;5073545;28;20469;-63
2022/03/28 04:05:05;;;;;;;16.47;11.57;;;9.80;74.20;;;;;;5073453;28;20441;-64
2022/03/28 04:07:31;;;;;;;14.77;11.47;;;9.80;74.30;;;;;;5073737;28;20448;-63
2022/03/28 04:10:00;;;;;;;14.40;10.53;;;9.80;74.40;;;;;;5073788;28;20440;-64
2022/03/28 04:12:27;;;;;;;14.00;11.00;;;9.80;74.40;;;;;;5073728;28;20475;-64
2022/03/28 04:14:58;;;;;;;13.90;10.67;;;9.80;74.20;;;;;;5073215;28;20483;-63
2022/03/28 04:17:25;;;;;;;16.87;11.73;;;9.80;74.60;;;;;;5072949;28;20527;-64
2022/03/28 04:19:52;;;;;;;15.83;12.40;;;9.80;74.80;;;;;;5072788;28;20460;-64
2022/03/28 04:22:19;;;;;;;14.67;11.70;;;9.80;74.90;;;;;;5072802;28;20504;-64
2022/03/28 04:24:46;;;;;;;12.93;11.10;;;9.70;75.20;;;;;;5072991;28;20490;-64
2022/03/28 04:27:13;;;;;;;14.57;11.50;;;9.70;75.60;;;;;;5072894;28;20823;-64
2022/03/28 04:29:40;;;;;;;14.23;10.83;;;9.70;75.30;;;;;;5072983;28;20456;-64
2022/03/28 04:32:09;;;;;;;12.93;11.37;;;9.60;75.40;;;;;;5072746;28;20563;-64
2022/03/28 04:34:36;;;;;;;17.33;11.40;;;9.60;75.40;;;;;;5072760;28;20491;-65
2022/03/28 04:37:03;;;;;;;14.13;11.30;;;9.60;75.50;;;;;;5072489;28;20818;-64
2022/03/28 04:39:30;;;;;;;15.57;11.30;;;9.50;75.20;;;;;;5073603;28;20479;-63
2022/03/28 04:41:56;;;;;;;14.90;10.20;;;9.50;75.50;;;;;;5073243;28;20475;-65
2022/03/28 04:44:23;;;;;;;13.07;10.83;;;9.50;75.30;;;;;;5072552;28;20445;-64
2022/03/28 04:46:50;;;;;;;14.73;10.77;;;9.50;75.10;;;;;;5072719;28;20460;-64
2022/03/28 04:49:18;;;;;;;13.87;11.37;;;9.40;75.20;;;;;;5072711;28;20462;-63
2022/03/28 04:51:45;;;;;;;12.70;10.07;;;9.40;75.40;;;;;;5073951;28;20464;-63
2022/03/28 04:54:11;;;;;;;14.60;11.77;;;9.40;75.90;;;;;;5076113;28;20452;-64
2022/03/28 04:56:38;;;;;;;13.17;10.63;;;9.30;75.90;;;;;;5076185;28;20470;-64
2022/03/28 04:59:06;;;;;;;12.20;9.70;;;9.30;75.90;;;;;;5076068;28;20445;-64
2022/03/28 05:01:33;;;;;;;14.57;11.47;;;9.30;75.80;;;;;;5076075;28;20476;-64
2022/03/28 05:04:00;;;;;;;13.67;10.90;;;9.20;76.10;;;;;;5076272;28;20457;-64
2022/03/28 05:06:28;;;;;;;12.23;10.77;;;9.20;76.60;;;;;;5075789;28;20801;-64
2022/03/28 05:08:54;;;;;;;16.70;11.73;;;9.20;76.50;;;;;;5076232;28;20440;-64
2022/03/28 05:11:22;;;;;;;15.50;12.30;;;9.20;76.70;;;;;;5076123;28;20865;-64
2022/03/28 05:13:49;;;;;;;15.43;12.23;;;9.20;76.90;;;;;;5075571;28;20823;-64
2022/03/28 05:16:16;;;;;;;16.17;12.27;;;9.10;76.90;;;;;;5075716;28;20520;-64
2022/03/28 05:18:43;;;;;;;14.20;11.90;;;9.10;76.70;;;;;;5075381;28;20497;-64
2022/03/28 05:21:10;;;;;;;16.77;13.13;;;9.10;76.80;;;;;;5075754;28;20571;-65
2022/03/28 05:23:38;;;;;;;20.73;12.63;;;9.10;77.10;;;;;;5075353;28;20827;-65
2022/03/28 05:26:05;;;;;;;20.57;12.33;;;9.00;77.40;;;;;;5075804;28;20456;-65
2022/03/28 05:28:32;;;;;;;23.57;13.63;;;9.10;77.90;;;;;;5075742;28;20472;-65
2022/03/28 05:30:58;;;;;;;14.43;11.93;;;9.10;77.70;;;;;;5075885;28;20464;-65
2022/03/28 05:33:25;;;;;;;17.03;10.33;;;9.10;77.90;;;;;;5075704;28;20451;-65
2022/03/28 05:35:54;;;;;;;18.83;13.63;;;9.10;77.90;;;;;;5075466;28;20484;-65
2022/03/28 05:38:21;;;;;;;23.57;12.60;;;9.10;78.10;;;;;;5075608;28;20448;-64
2022/03/28 05:40:49;;;;;;;21.13;12.20;;;9.10;78.40;;;;;;5075537;28;20472;-64
2022/03/28 05:43:17;;;;;;;19.17;12.63;;;9.10;78.60;;;;;;5075586;28;20526;-64
2022/03/28 05:45:44;;;;;;;19.10;13.83;;;9.10;78.60;;;;;;5075559;28;20480;-64
2022/03/28 05:48:11;;;;;;;17.43;12.87;;;9.00;78.70;;;;;;5074986;28;20965;-64
2022/03/28 05:50:37;;;;;;;21.83;12.60;;;9.00;78.70;;;;;;5074945;28;20445;-65
2022/03/28 05:53:04;;;;;;;17.83;13.73;;;9.10;78.80;;;;;;5075165;28;20459;-64
2022/03/28 05:55:31;;;;;;;23.70;14.80;;;9.10;79.00;;;;;;5074955;28;20899;-65
2022/03/28 05:58:00;;;;;;;22.50;15.50;;;9.10;79.10;;;;;;5074990;28;20448;-64
2022/03/28 06:00:27;;;;;;;22.57;13.70;;;9.10;79.20;;;;;;5074886;28;20448;-65
2022/03/28 06:02:55;;;;;;;18.37;15.83;;;9.10;79.40;;;;;;5074700;28;20449;-65
2022/03/28 06:05:22;;;;;;;25.70;16.43;;;9.10;79.60;;;;;;5074611;28;20535;-65
2022/03/28 06:07:49;;;;;;;16.90;14.30;;;9.10;79.80;;;;;;5074367;28;20971;-64
2022/03/28 06:10:16;;;;;;;20.93;15.07;;;9.10;79.80;;;;;;5075412;28;20440;-64
2022/03/28 06:12:43;;;;;;;21.93;16.00;;;9.10;80.20;;;;;;5074719;28;20457;-64
2022/03/28 06:15:12;;;;;;;20.20;16.53;;;9.10;80.60;;;;;;5074635;28;20492;-64
2022/03/28 06:17:39;;;;;;;20.70;16.60;;;9.20;81.00;;;;;;5074758;28;20548;-64
2022/03/28 06:20:07;;;;;;;21.23;16.13;;;9.20;81.30;;;;;;5074199;28;20457;-64
2022/03/28 06:22:34;;;;;;;22.90;16.20;;;9.30;82.00;;;;;;5074425;28;20475;-64
2022/03/28 06:25:02;;;;;;;23.80;16.80;;;9.30;82.20;;;;;;5074487;28;20449;-64
2022/03/28 06:27:29;;;;;;;27.07;17.60;;;9.30;82.50;;;;;;5074429;28;20479;-64
2022/03/28 06:29:55;;;;;;;24.00;17.33;;;9.40;83.00;;;;;;5074418;28;20441;-64
2022/03/28 06:32:24;;;;;;;23.60;17.20;;;9.40;83.20;;;;;;5074198;28;20467;-64
2022/03/28 06:34:52;;;;;;;25.77;17.60;;;9.40;83.50;;;;;;5073895;28;20944;-64
2022/03/28 06:37:22;;;;;;;22.17;15.83;;;9.40;83.90;;;;;;5074152;28;20901;-64
2022/03/28 06:39:49;;;;;;;24.73;17.80;;;9.50;84.40;;;;;;5074403;28;20437;-63
2022/03/28 06:42:17;;;;;;;27.07;18.60;;;9.60;84.50;;;;;;5074559;28;20475;-64
2022/03/28 06:44:44;;;;;;;26.83;18.50;;;9.70;84.90;;;;;;5074150;28;20429;-64
2022/03/28 06:47:11;;;;;;;28.57;20.50;;;9.70;85.10;;;;;;5074191;28;20441;-64
2022/03/28 06:49:39;;;;;;;24.73;18.07;;;9.70;85.40;;;;;;5074313;28;20487;-65
2022/03/28 06:52:07;;;;;;;33.37;19.63;;;9.80;85.80;;;;;;5073762;28;20987;-64
2022/03/28 06:54:35;;;;;;;32.67;19.40;;;9.90;86.40;;;;;;5074127;28;20460;-64
2022/03/28 06:57:02;;;;;;;26.30;19.20;;;10.00;85.40;;;;;;5073906;28;20476;-65
2022/03/28 06:59:29;;;;;;;27.37;20.67;;;10.00;85.80;;;;;;5073921;28;20429;-65
2022/03/28 07:01:56;;;;;;;30.30;20.53;;;10.10;86.20;;;;;;5073861;28;20473;-65
2022/03/28 07:04:23;;;;;;;29.53;20.43;;;10.20;87.00;;;;;;5073871;28;20492;-65
2022/03/28 07:06:51;;;;;;;27.07;19.77;;;10.30;87.20;;;;;;5073889;28;20445;-65
2022/03/28 07:09:18;;;;;;;31.70;21.60;;;10.30;88.60;;;;;;5073901;28;20839;-65
2022/03/28 07:11:46;;;;;;;31.33;20.23;;;10.40;88.10;;;;;;5073800;28;20473;-64
2022/03/28 07:14:16;;;;;;;39.57;21.53;;;10.60;88.90;;;;;;5073260;28;20540;-65
2022/03/28 07:16:42;;;;;;;32.17;19.37;;;10.70;88.60;;;;;;5073808;28;21029;-65
2022/03/28 07:19:09;;;;;;;34.40;20.27;;;10.80;88.10;;;;;;5073595;28;20463;-64
2022/03/28 07:21:36;;;;;;;41.67;21.10;;;10.90;87.80;;;;;;5073393;28;20465;-65
2022/03/28 07:24:04;;;;;;;38.17;21.60;;;11.00;88.30;;;;;;5073760;28;20455;-65
2022/03/28 07:26:31;;;;;;;31.00;19.60;;;11.10;89.30;;;;;;5073771;28;20502;-65
2022/03/28 07:29:02;;;;;;;35.87;20.10;;;11.20;88.40;;;;;;5073926;28;20814;-64
2022/03/28 07:31:29;;;;;;;30.03;20.67;;;11.40;87.40;;;;;;5073959;28;20467;-65
2022/03/28 07:34:29;;;;;;;34.20;20.27;;;11.50;86.50;;;;;;5074789;28;20536;-65
2022/03/28 07:36:43;;;;;;;38.10;21.00;;;11.70;85.70;;;;;;5073193;28;20584;-65
2022/03/28 07:39:11;;;;;;;33.13;21.73;;;11.90;84.30;;;;;;5073321;28;20975;-65
2022/03/28 07:41:38;;;;;;;32.80;20.73;;;12.00;83.80;;;;;;5073242;28;20472;-65
2022/03/28 07:44:05;;;;;;;41.10;23.63;;;12.20;84.40;;;;;;5073807;28;20453;-65
2022/03/28 07:46:32;;;;;;;37.93;22.90;;;12.30;84.80;;;;;;5074132;28;20441;-64
2022/03/28 07:48:59;;;;;;;39.37;22.97;;;12.40;85.80;;;;;;5074121;28;20459;-64
2022/03/28 07:51:26;;;;;;;33.53;21.67;;;12.50;86.30;;;;;;5073185;28;20468;-65
2022/03/28 07:53:54;;;;;;;38.50;23.30;;;12.60;85.70;;;;;;5073286;28;20451;-66
2022/03/28 07:56:22;;;;;;;38.77;23.97;;;12.70;85.60;;;;;;5073577;28;20483;-65
2022/03/28 07:58:49;;;;;;;35.47;23.43;;;12.80;85.90;;;;;;5073438;28;20463;-66
2022/03/28 08:01:16;;;;;;;44.20;23.80;;;13.00;87.00;;;;;;5073373;28;20472;-66
2022/03/28 08:03:43;;;;;;;38.70;23.73;;;13.10;87.40;;;;;;5073486;28;20437;-65
2022/03/28 08:06:10;;;;;;;39.90;25.47;;;13.20;87.00;;;;;;5073395;28;20550;-66
2022/03/28 08:08:37;;;;;;;37.27;24.20;;;13.20;85.90;;;;;;5072812;28;20437;-66
2022/03/28 08:11:05;;;;;;;40.83;25.53;;;13.30;86.10;;;;;;5072916;28;20900;-66
2022/03/28 08:13:33;;;;;;;40.30;24.50;;;13.40;85.90;;;;;;5073176;28;20456;-66
2022/03/28 08:16:00;;;;;;;36.03;21.63;;;13.50;85.70;;;;;;5073095;28;20480;-65
2022/03/28 08:18:26;;;;;;;39.57;23.33;;;13.70;84.70;;;;;;5072875;28;20474;-66
2022/03/28 08:20:54;;;;;;;31.20;23.00;;;13.90;84.10;;;;;;5072959;28;20475;-67
2022/03/28 08:23:21;;;;;;;47.47;25.23;;;14.00;83.90;;;;;;5073212;28;20448;-65
2022/03/28 08:25:48;;;;;;;37.20;24.10;;;14.30;82.80;;;;;;5075353;28;20465;-65
2022/03/28 08:28:15;;;;;;;38.00;24.83;;;14.40;82.60;;;;;;5077254;28;20456;-66
2022/03/28 08:30:44;;;;;;;37.47;24.40;;;14.50;82.40;;;;;;5077024;28;20479;-66
2022/03/28 08:33:10;;;;;;;39.27;24.93;;;14.60;81.00;;;;;;5077000;28;20456;-66
2022/03/28 08:35:38;;;;;;;39.63;24.67;;;14.80;79.90;;;;;;5076413;28;20456;-66
2022/03/28 08:38:04;;;;;;;41.80;26.70;;;14.90;78.90;;;;;;5076770;28;20547;-66
2022/03/28 08:40:31;;;;;;;40.83;25.67;;;15.00;78.60;;;;;;5076441;28;20448;-66
2022/03/28 08:42:58;;;;;;;33.13;24.17;;;15.00;78.50;;;;;;5076504;28;20425;-66
2022/03/28 08:45:25;;;;;;;40.50;23.63;;;15.20;77.90;;;;;;5076608;28;20475;-66
2022/03/28 08:47:56;;;;;;;41.63;20.90;;;15.30;75.50;;;;;;5076396;28;20457;-66
2022/03/28 08:50:23;;;;;;;32.50;20.00;;;15.50;73.60;;;;;;5076022;28;20934;-66
2022/03/28 08:52:50;;;;;;;34.27;21.20;;;15.70;72.00;;;;;;5076325;28;20449;-66
2022/03/28 08:55:19;;;;;;;37.70;22.97;;;16.00;70.90;;;;;;5076543;28;20448;-66
2022/03/28 08:57:46;;;;;;;31.57;20.27;;;16.20;70.30;;;;;;5076213;28;20484;-66
2022/03/28 09:00:13;;;;;;;32.90;19.90;;;16.40;69.70;;;;;;5076668;28;20445;-67
2022/03/28 09:02:42;;;;;;;35.73;20.70;;;16.60;68.10;;;;;;5076368;28;20807;-66
2022/03/28 09:05:11;;;;;;;33.83;23.27;;;16.90;66.90;;;;;;5076077;28;20823;-66
2022/03/28 09:07:38;;;;;;;42.53;23.73;;;17.00;65.90;;;;;;5076414;28;20445;-65
2022/03/28 09:10:08;;;;;;;45.20;23.30;;;17.10;66.40;;;;;;5075635;28;20452;-65
2022/03/28 09:12:40;;;;;;;43.80;21.10;;;17.10;63.80;;;;;;5076105;28;20477;-66
2022/03/28 09:15:09;;;;;;;34.83;22.73;;;17.30;63.70;;;;;;5076050;28;20967;-66
2022/03/28 09:17:40;;;;;;;43.07;22.10;;;17.50;64.00;;;;;;5076033;28;20480;-66
2022/03/28 09:20:07;;;;;;;42.17;21.33;;;17.50;63.70;;;;;;5075825;28;20825;-66
2022/03/28 09:22:41;;;;;;;39.50;22.97;;;17.60;62.30;;;;;;5076035;28;20797;-66
2022/03/28 09:25:10;;;;;;;40.87;22.73;;;17.80;61.90;;;;;;5075724;28;20443;-66
2022/03/28 09:27:39;;;;;;;33.90;22.53;;;18.00;61.00;;;;;;5075663;28;20459;-66
2022/03/28 09:30:08;;;;;;;39.40;24.90;;;18.20;59.10;;;;;;5075634;28;20509;-67
2022/03/28 09:32:36;;;;;;;38.30;23.20;;;18.50;59.00;;;;;;5075932;28;20479;-67
2022/03/28 09:35:06;;;;;;;35.73;23.07;;;18.70;59.70;;;;;;5075846;28;20797;-67
2022/03/28 09:37:58;;;;;;;35.50;23.43;;;18.90;58.90;;;;;;5075249;28;20468;-67
2022/03/28 09:40:43;;;;;;;31.60;22.13;;;19.00;57.90;;;;;;5076235;28;20774;-67
2022/03/28 09:43:17;;;;;;;29.80;22.60;;;19.10;57.30;;;;;;5075610;28;20440;-67
2022/03/28 09:45:50;;;;;;;32.20;24.03;;;19.40;56.90;;;;;;5075582;28;20429;-66
2022/03/28 09:48:19;;;;;;;31.70;23.67;;;19.70;56.20;;;;;;5075546;28;20531;-66
2022/03/28 09:50:48;;;;;;;29.23;23.10;;;19.90;54.90;;;;;;5075629;28;20472;-67
2022/03/28 09:53:20;;;;;;;31.57;21.67;;;20.10;54.40;;;;;;5075434;28;20456;-67
2022/03/28 09:55:53;;;;;;;29.50;23.80;;;20.30;53.10;;;;;;5075677;28;20437;-67
2022/03/28 09:58:34;;;;;;;26.97;20.07;;;20.50;52.70;;;;;;5075597;28;20432;-67
2022/03/28 10:01:01;;;;;;;29.97;23.90;;;20.80;52.50;;;;;;5076002;28;20464;-67
2022/03/28 10:03:33;;;;;;;28.50;23.70;;;21.10;52.30;;;;;;5075683;28;20448;-67
2022/03/28 10:06:01;;;;;;;30.87;22.70;;;21.20;51.60;;;;;;5078760;28;20476;-68
2022/03/28 10:08:30;;;;;;;30.37;25.27;;;21.30;52.00;;;;;;5083934;28;20962;-68
2022/03/28 10:10:58;;;;;;;33.03;22.90;;;21.40;50.60;;;;;;5084252;28;20460;-68
2022/03/28 10:13:26;;;;;;;29.90;24.20;;;21.50;51.40;;;;;;5086747;28;20769;-69
2022/03/28 10:16:00;;;;;;;35.30;25.00;;;21.70;51.40;;;;;;5087298;28;20544;-67
2022/03/28 10:18:29;;;;;;;29.50;23.23;;;22.00;50.10;;;;;;5084355;28;20456;-68
2022/03/28 10:20:58;;;;;;;31.70;23.73;;;22.20;48.80;;;;;;5085214;28;21052;-68
2022/03/28 10:23:30;;;;;;;25.97;21.70;;;22.50;48.20;;;;;;5084699;28;20424;-68
2022/03/28 10:25:59;;;;;;;24.53;21.83;;;22.90;47.20;;;;;;5086415;28;20422;-69
2022/03/28 10:28:26;;;;;;;27.60;23.60;;;23.30;45.60;;;;;;5086337;28;20441;-68
2022/03/28 10:31:08;;;;;;;27.10;23.87;;;23.60;44.60;;;;;;5085487;28;20472;-69
2022/03/28 10:33:35;;;;;;;26.00;23.43;;;24.10;44.50;;;;;;5086789;28;20433;-69
2022/03/28 10:36:06;;;;;;;25.80;23.00;;;24.50;43.30;;;;;;5086238;28;20444;-69
2022/03/28 10:38:34;;;;;;;25.77;23.07;;;24.70;42.70;;;;;;5086761;28;20459;-69
2022/03/28 10:41:02;;;;;;;25.00;22.40;;;25.00;41.60;;;;;;5086660;28;20483;-68
2022/03/28 10:43:31;;;;;;;25.07;22.57;;;25.30;40.50;;;;;;5086963;28;20451;-66
2022/03/28 10:46:00;;;;;;;27.00;24.37;;;25.40;40.90;;;;;;5085972;28;20452;-68
2022/03/28 10:48:41;;;;;;;26.17;23.27;;;25.70;40.40;;;;;;5085227;28;20449;-68
2022/03/28 10:51:09;;;;;;;25.87;23.17;;;25.90;39.30;;;;;;5086043;28;20472;-67
2022/03/28 10:53:41;;;;;;;24.27;21.67;;;26.20;37.60;;;;;;5087893;28;20459;-67
2022/03/28 10:56:14;;;;;;;27.00;24.30;;;26.70;37.40;;;;;;5088407;28;20863;-67
2022/03/28 10:58:42;;;;;;;24.00;21.57;;;27.40;37.20;;;;;;5087485;28;20481;-67
2022/03/28 11:01:24;;;;;;;27.33;24.27;;;27.60;34.90;;;;;;5086543;28;20491;-67
2022/03/28 11:03:57;;;;;;;26.50;23.97;;;28.00;33.70;;;;;;5086023;28;20970;-67
2022/03/28 11:06:48;;;;;;;23.90;21.67;;;28.20;32.80;;;;;;5086059;28;20501;-67
2022/03/28 11:09:43;;;;;;;25.07;22.70;;;28.20;32.20;;;;;;5085707;28;20511;-67
2022/03/28 11:12:12;;;;;;;24.23;21.93;;;28.30;32.50;;;;;;5085482;28;20556;-67
2022/03/28 11:14:40;;;;;;;24.83;22.37;;;28.70;32.10;;;;;;5085659;28;20452;-67
2022/03/28 11:17:15;;;;;;;24.60;22.20;;;29.20;31.70;;;;;;5086059;28;20469;-67
2022/03/28 11:20:00;;;;;;;27.07;24.20;;;29.70;30.40;;;;;;5084735;28;20467;-67
2022/03/28 11:22:58;;;;;;;27.93;24.93;;;30.10;29.40;;;;;;5086149;28;20472;-67
2022/03/28 11:25:38;;;;;;;24.53;22.03;;;30.10;29.90;;;;;;5051320;28;20456;-67
2022/03/28 11:28:18;;;;;;;24.60;22.40;;;30.10;29.50;;;;;;5085611;28;20429;-67
2022/03/28 11:30:50;;;;;;;23.70;21.40;;;30.50;29.20;;;;;;5084386;28;20455;-67
2022/03/28 11:33:19;;;;;;;26.87;24.50;;;31.00;29.20;;;;;;5084166;28;20448;-67
2022/03/28 11:35:54;;;;;;;27.53;24.77;;;31.50;28.10;;;;;;5083452;28;20857;-67
2022/03/28 11:38:22;;;;;;;26.53;24.10;;;31.90;27.50;;;;;;5083753;28;20475;-67
2022/03/28 11:40:51;;;;;;;25.47;23.00;;;32.10;26.70;;;;;;5083928;28;20502;-67
2022/03/28 11:43:18;;;;;;;23.10;21.10;;;32.20;26.70;;;;;;5084102;28;20954;-67
2022/03/28 11:45:50;;;;;;;25.43;22.83;;;32.50;26.30;;;;;;5085009;28;20547;-67
2022/03/28 11:48:19;;;;;;;27.13;24.33;;;33.10;25.80;;;;;;5084090;28;20440;-67
2022/03/28 11:50:46;;;;;;;25.37;23.03;;;33.70;25.50;;;;;;5084856;28;20510;-67
2022/03/28 11:53:15;;;;;;;25.47;23.27;;;34.00;24.20;;;;;;5084492;28;20447;-67
2022/03/28 11:55:48;;;;;;;26.23;23.90;;;34.00;24.30;;;;;;5084785;28;20447;-67
2022/03/28 11:58:19;;;;;;;26.00;23.60;;;33.90;23.80;;;;;;5084784;28;20460;-67
2022/03/28 12:00:48;;;;;;;26.43;23.83;;;33.90;23.80;;;;;;5085706;28;20471;-67
2022/03/28 12:03:15;;;;;;;22.03;20.03;;;33.80;23.70;;;;;;5089012;28;20517;-67
2022/03/28 12:05:47;;;;;;;27.63;25.00;;;33.80;24.10;;;;;;5087547;28;20447;-67
2022/03/28 12:08:15;;;;;;;25.87;23.63;;;33.80;24.30;;;;;;5087042;28;20436;-67
2022/03/28 12:10:44;;;;;;;26.63;24.20;;;33.80;24.90;;;;;;5089653;28;20467;-67
2022/03/28 12:13:11;;;;;;;27.60;25.00;;;34.00;24.40;;;;;;5091993;28;20470;-68
2022/03/28 12:15:43;;;;;;;26.93;24.60;;;34.30;24.30;;;;;;5086824;28;20439;-68
2022/03/28 12:18:11;;;;;;;24.40;22.20;;;34.00;23.10;;;;;;5087516;28;20468;-68
2022/03/28 12:20:40;;;;;;;25.07;22.77;;;33.80;23.90;;;;;;5088141;28;20432;-68
2022/03/28 12:23:08;;;;;;;25.33;23.10;;;34.20;24.30;;;;;;5087830;28;20448;-68
2022/03/28 12:25:37;;;;;;;27.10;24.53;;;34.60;22.90;;;;;;5086434;28;20958;-68
2022/03/28 12:28:07;;;;;;;27.80;24.80;;;34.80;23.30;;;;;;5086929;28;20508;-68
2022/03/28 12:30:37;;;;;;;27.03;24.43;;;34.70;22.80;;;;;;5087204;28;20428;-68
2022/03/28 12:33:12;;;;;;;27.53;24.90;;;35.00;22.90;;;;;;5087496;28;20444;-68
2022/03/28 12:35:42;;;;;;;25.10;22.57;;;35.50;22.50;;;;;;5088076;28;20457;-68
2022/03/28 12:38:11;;;;;;;26.30;23.90;;;35.70;21.60;;;;;;5088060;28;20514;-68